Accueil
METAR-TAF:

METAR-TAF

Aéroports :

Koumac, Nouvelle-Calédonie

Aérodrome de Koumac

latitude: 20-34S, longitude: 164-17E, altitude: 23 m

METAR: absent

Heure: 18:05 (07:05 UTC)

Prévision

Le bulletin a été fait il y a 2 heures et 5 minutes, à 05:00 UTC
Prévision valable du 27 à 06 UTC au 28 à 06 UTC
Vent 18 kt de sud-est
Visibilité 10 km ou plus
Nuages épars à une hauteur de 3500 ft
Evoluant progressivement
du 27 à 07 UTC au 27 à 10 UTC
Vent 5 kt de nord-est
Evoluant progressivement
du 27 à 22 UTC au 28 à 01 UTC
Vent 16 kt de sud/sud-est

TAF: NWWK 270500Z 2706/2806 14018KT 9999 SCT035 BECMG 2707/2710 04005KT BECMG 2722/2801 15016KT

Observations et prévisions météorologiques de plus de 4000 aéroports (messages METAR et TAF).

Les stations disponibles sont représentées par des disques jaunes et rouges sur la carte.

Passer la souris dessus pour voir le nom de la station.

Cliquer dessus pour voir les observations et prévisions météorologiques.

Pour changer de carte: cliquez sur les boutons verts avec une croix noire pour zoomer, sur le bouton vert avec un tiret pour effectuer un zoom arrière, ou sur les flèches vertes pour les cartes adjacentes.


METAR-TAF: